Time;durP1;ratioP1;P1;durP2;ratioP2;P2;SDS_P1;SDS_P2;PMS_P1;PMS_P2;Temp;Humidity;BMP_temperature;BMP_pressure;BME280_temperature;BME280_humidity;BME280_pressure;Samples;Min_cycle;Max_cycle;Signal;HPM_P1;HPM_P2
2023/01/19 00:00:10;;;;;;;;;;;17.90;64.90;;;;;;5019314;28;888;-73
2023/01/19 00:02:36;;;;;;;;;;;17.90;64.90;;;;;;5023933;28;896;-73
2023/01/19 00:05:02;;;;;;;;;;;17.90;64.90;;;;;;5023431;28;946;-73
2023/01/19 00:07:28;;;;;;;;;;;17.90;64.90;;;;;;5024648;28;1256;-73
2023/01/19 00:09:54;;;;;;;;;;;17.90;65.00;;;;;;5022629;28;970;-73
2023/01/19 00:12:19;;;;;;;;;;;17.90;65.00;;;;;;5018668;28;1011;-73
2023/01/19 00:14:45;;;;;;;;;;;17.90;65.00;;;;;;5023366;28;1973;-74
2023/01/19 00:17:10;;;;;;;;;;;17.90;65.00;;;;;;5023944;28;1334;-73
2023/01/19 00:19:36;;;;;;;;;;;17.90;65.00;;;;;;5021261;28;804;-74
2023/01/19 00:22:01;;;;;;;;;;;17.90;65.00;;;;;;5021832;28;1067;-74
2023/01/19 00:24:27;;;;;;;;;;;17.90;65.00;;;;;;5021706;28;902;-74
2023/01/19 00:26:52;;;;;;;;;;;17.90;65.00;;;;;;5051389;28;1381;-74
2023/01/19 00:29:19;;;;;;;;;;;17.90;65.00;;;;;;5022437;28;816;-74
2023/01/19 00:31:44;;;;;;;;;;;17.90;65.00;;;;;;5022365;28;902;-73
2023/01/19 00:34:10;;;;;;;;;;;17.90;65.10;;;;;;5038426;28;1965;-73
2023/01/19 00:36:35;;;;;;;;;;;17.90;65.00;;;;;;5031402;28;1311;-73
2023/01/19 00:39:01;;;;;;;;;;;17.90;65.00;;;;;;5021938;28;842;-73
2023/01/19 00:44:10;;;;;;;;;;;17.90;65.00;;;;;;5019351;28;811;-73
2023/01/19 00:46:36;;;;;;;;;;;17.90;65.00;;;;;;5023137;28;1288;-73
2023/01/19 00:49:01;;;;;;;;;;;17.90;65.00;;;;;;5026225;28;950;-73
2023/01/19 00:51:27;;;;;;;;;;;17.90;65.10;;;;;;5022970;28;1033;-73
2023/01/19 00:53:52;;;;;;;;;;;17.90;65.10;;;;;;5016141;28;1971;-73
2023/01/19 00:56:18;;;;;;;;;;;17.90;65.10;;;;;;5020620;28;1217;-73
2023/01/19 00:58:44;;;;;;;;;;;17.90;65.10;;;;;;5019859;28;1005;-73
2023/01/19 01:01:10;;;;;;;;;;;17.90;65.10;;;;;;5037452;28;820;-72
2023/01/19 01:03:35;;;;;;;;;;;17.90;65.10;;;;;;5020499;28;1362;-72
2023/01/19 01:06:02;;;;;;;;;;;17.90;65.10;;;;;;5021051;28;972;-73
2023/01/19 01:08:28;;;;;;;;;;;17.90;65.10;;;;;;5017743;28;1207;-73
2023/01/19 01:10:54;;;;;;;;;;;17.80;65.00;;;;;;5055141;28;910;-72
2023/01/19 01:13:19;;;;;;;;;;;17.80;65.10;;;;;;5021335;28;1906;-73
2023/01/19 01:15:47;;;;;;;;;;;17.80;65.00;;;;;;5054504;28;903;-73
2023/01/19 01:18:13;;;;;;;;;;;17.90;65.10;;;;;;5021357;28;1261;-73
2023/01/19 01:20:38;;;;;;;;;;;17.80;65.10;;;;;;5021469;28;883;-73
2023/01/19 01:23:04;;;;;;;;;;;17.80;65.00;;;;;;5021008;28;899;-73
2023/01/19 01:25:30;;;;;;;;;;;17.80;65.10;;;;;;5020741;28;867;-72
2023/01/19 01:27:55;;;;;;;;;;;17.80;65.10;;;;;;5024377;28;1245;-73
2023/01/19 01:30:21;;;;;;;;;;;17.90;65.20;;;;;;5024517;28;959;-73
2023/01/19 01:32:46;;;;;;;;;;;17.80;65.10;;;;;;5025287;28;1899;-73
2023/01/19 01:35:12;;;;;;;;;;;17.80;65.10;;;;;;5052484;28;1133;-73
2023/01/19 01:37:37;;;;;;;;;;;17.80;65.10;;;;;;5023147;28;1387;-73
2023/01/19 01:40:04;;;;;;;;;;;17.80;65.10;;;;;;5038585;28;995;-73
2023/01/19 01:42:29;;;;;;;;;;;17.80;65.10;;;;;;5020999;28;899;-73
2023/01/19 01:44:55;;;;;;;;;;;17.80;65.10;;;;;;5020978;28;860;-73
2023/01/19 01:47:31;;;;;;;;;;;17.80;65.10;;;;;;5022089;28;1283;-73
2023/01/19 01:50:03;;;;;;;;;;;17.80;65.10;;;;;;5035314;28;1175;-74
2023/01/19 01:52:29;;;;;;;;;;;17.80;65.10;;;;;;5017529;28;1959;-73
2023/01/19 01:54:55;;;;;;;;;;;17.80;65.10;;;;;;5052239;28;903;-73
2023/01/19 01:57:21;;;;;;;;;;;17.80;65.10;;;;;;5051354;28;1266;-73
2023/01/19 01:59:47;;;;;;;;;;;17.80;65.10;;;;;;5028670;28;828;-73
2023/01/19 02:05:05;;;;;;;;;;;17.80;65.10;;;;;;5030770;28;735;-74
2023/01/19 02:13:21;;;;;;;;;;;17.80;65.20;;;;;;5022513;28;1910;-73
2023/01/19 02:15:47;;;;;;;;;;;17.80;65.20;;;;;;5034008;28;930;-74
2023/01/19 02:18:13;;;;;;;;;;;17.80;65.20;;;;;;5032888;28;1371;-73
2023/01/19 02:20:38;;;;;;;;;;;17.80;65.20;;;;;;5013184;28;1187;-74
2023/01/19 02:23:05;;;;;;;;;;;17.80;65.20;;;;;;5023283;28;978;-73
2023/01/19 02:25:30;;;;;;;;;;;17.80;65.20;;;;;;5018106;28;852;-73
2023/01/19 02:27:56;;;;;;;;;;;17.80;65.20;;;;;;5024807;28;1320;-73
2023/01/19 02:30:21;;;;;;;;;;;17.80;65.20;;;;;;5052717;28;982;-73
2023/01/19 02:32:47;;;;;;;;;;;17.80;65.20;;;;;;5026876;28;1898;-73
2023/01/19 02:35:13;;;;;;;;;;;17.80;65.20;;;;;;5051655;28;1076;-73
2023/01/19 02:37:39;;;;;;;;;;;17.80;65.20;;;;;;5024305;28;1245;-74
2023/01/19 02:40:06;;;;;;;;;;;17.80;65.20;;;;;;5050593;28;885;-72
2023/01/19 02:42:36;;;;;;;;;;;17.80;65.20;;;;;;5019655;28;890;-74
2023/01/19 02:45:05;;;;;;;;;;;17.80;65.20;;;;;;5040999;28;1654;-75
2023/01/19 02:47:57;;;;;;;;;;;17.80;65.20;;;;;;5018773;28;1367;-76
2023/01/19 02:50:35;;;;;;;;;;;17.80;65.20;;;;;;5021752;28;1093;-73
2023/01/19 02:53:20;;;;;;;;;;;17.80;65.20;;;;;;5019145;28;1954;-74
2023/01/19 02:55:47;;;;;;;;;;;17.80;65.20;;;;;;5021874;28;873;-73
2023/01/19 02:58:19;;;;;;;;;;;17.80;66.00;;;;;;5050336;28;1677;-74
2023/01/19 03:01:11;;;;;;;;;;;17.80;65.30;;;;;;5007644;28;1371;-76
2023/01/19 03:03:49;;;;;;;;;;;17.70;65.20;;;;;;5017918;28;1488;-74
2023/01/19 03:06:20;;;;;;;;;;;17.80;65.20;;;;;;5023041;28;1414;-74
2023/01/19 03:08:45;;;;;;;;;;;17.80;65.30;;;;;;5051992;28;1366;-74
2023/01/19 03:11:11;;;;;;;;;;;17.80;65.30;;;;;;5018831;28;1738;-73
2023/01/19 03:13:43;;;;;;;;;;;17.70;65.20;;;;;;5022514;28;1930;-71
2023/01/19 03:16:15;;;;;;;;;;;17.70;65.20;;;;;;5017804;28;1452;-71
2023/01/19 03:18:41;;;;;;;;;;;17.70;65.20;;;;;;5054224;28;824;-71
2023/01/19 03:21:07;;;;;;;;;;;17.80;65.30;;;;;;5023279;28;914;-70
2023/01/19 03:23:33;;;;;;;;;;;17.70;65.20;;;;;;5053306;28;863;-72
2023/01/19 03:25:59;;;;;;;;;;;17.70;65.20;;;;;;5048616;28;939;-71
2023/01/19 03:28:25;;;;;;;;;;;17.80;65.30;;;;;;5039513;28;1370;-71
2023/01/19 03:30:57;;;;;;;;;;;17.80;65.30;;;;;;5021232;28;795;-71
2023/01/19 03:33:30;;;;;;;;;;;17.80;65.20;;;;;;5054149;28;1969;-71
2023/01/19 03:35:57;;;;;;;;;;;17.70;65.20;;;;;;5018305;28;931;-70
2023/01/19 03:38:25;;;;;;;;;;;17.70;65.20;;;;;;5054389;28;1236;-71
2023/01/19 03:40:52;;;;;;;;;;;17.80;65.30;;;;;;5055013;28;915;-71
2023/01/19 03:43:17;;;;;;;;;;;17.70;65.20;;;;;;5023334;28;852;-71
2023/01/19 03:45:43;;;;;;;;;;;17.70;65.20;;;;;;5022493;28;1738;-71
2023/01/19 03:48:08;;;;;;;;;;;17.80;65.20;;;;;;5020108;28;1237;-71
2023/01/19 03:50:34;;;;;;;;;;;17.70;65.20;;;;;;5053817;28;986;-72
2023/01/19 03:53:19;;;;;;;;;;;17.80;65.30;;;;;;5023180;28;1894;-71
2023/01/19 03:55:46;;;;;;;;;;;17.80;65.30;;;;;;5020750;28;1074;-71
2023/01/19 03:58:11;;;;;;;;;;;17.70;65.20;;;;;;5052164;28;1310;-73
2023/01/19 04:00:37;;;;;;;;;;;17.70;65.20;;;;;;5022691;28;884;-73
2023/01/19 04:03:03;;;;;;;;;;;17.70;65.20;;;;;;5021810;28;904;-73
2023/01/19 04:05:28;;;;;;;;;;;17.70;65.20;;;;;;5052680;28;1407;-72
2023/01/19 04:07:54;;;;;;;;;;;17.70;65.20;;;;;;5022361;28;1275;-72
2023/01/19 04:10:19;;;;;;;;;;;17.70;65.20;;;;;;5020090;28;935;-73
2023/01/19 04:12:45;;;;;;;;;;;17.70;65.20;;;;;;5053138;28;1973;-73
2023/01/19 04:15:10;;;;;;;;;;;17.70;65.20;;;;;;5051821;28;1081;-73
2023/01/19 04:17:36;;;;;;;;;;;17.70;65.20;;;;;;5020180;28;1275;-73
2023/01/19 04:20:01;;;;;;;;;;;17.70;65.20;;;;;;5021543;28;939;-72
2023/01/19 04:22:27;;;;;;;;;;;17.70;65.20;;;;;;5021783;28;947;-72
2023/01/19 04:24:52;;;;;;;;;;;17.70;65.20;;;;;;5019535;28;987;-72
2023/01/19 04:27:18;;;;;;;;;;;17.70;65.20;;;;;;5023319;28;1260;-73
2023/01/19 04:29:43;;;;;;;;;;;17.70;65.20;;;;;;5023130;28;796;-73
2023/01/19 04:32:09;;;;;;;;;;;17.70;65.20;;;;;;5023399;28;1568;-74
2023/01/19 04:34:34;;;;;;;;;;;17.70;65.20;;;;;;5036476;28;1902;-73
2023/01/19 04:37:00;;;;;;;;;;;17.70;65.20;;;;;;5021571;28;1309;-74
2023/01/19 04:39:26;;;;;;;;;;;17.70;65.20;;;;;;5034821;28;1331;-73
2023/01/19 04:41:51;;;;;;;;;;;17.70;65.20;;;;;;5021043;28;894;-73
2023/01/19 04:44:17;;;;;;;;;;;17.70;65.20;;;;;;5018049;28;884;-74
2023/01/19 04:46:42;;;;;;;;;;;17.70;65.20;;;;;;5016152;28;1301;-73
2023/01/19 04:49:08;;;;;;;;;;;17.70;65.20;;;;;;5017687;28;974;-73
2023/01/19 04:51:34;;;;;;;;;;;17.70;65.30;;;;;;5034861;28;1343;-73
2023/01/19 04:54:00;;;;;;;;;;;17.70;65.20;;;;;;5048273;28;1938;-74
2023/01/19 04:56:26;;;;;;;;;;;17.70;65.20;;;;;;5042036;28;1355;-75
2023/01/19 04:58:51;;;;;;;;;;;17.70;65.30;;;;;;5018658;28;1069;-75
2023/01/19 05:01:17;;;;;;;;;;;17.70;65.20;;;;;;5016102;28;1155;-75
2023/01/19 05:03:42;;;;;;;;;;;17.70;65.20;;;;;;5018871;28;1263;-75
2023/01/19 05:06:07;;;;;;;;;;;17.70;65.20;;;;;;5034500;28;824;-75
2023/01/19 05:08:33;;;;;;;;;;;17.70;65.30;;;;;;5020569;28;796;-75
2023/01/19 05:10:59;;;;;;;;;;;17.70;65.20;;;;;;5051053;28;804;-74
2023/01/19 05:13:24;;;;;;;;;;;17.70;65.10;;;;;;5019996;28;1910;-74
2023/01/19 05:15:49;;;;;;;;;;;17.80;65.10;;;;;;5018626;28;971;-74
2023/01/19 05:18:15;;;;;;;;;;;17.80;65.00;;;;;;5018590;28;1255;-73
2023/01/19 05:20:40;;;;;;;;;;;17.80;64.90;;;;;;5015738;28;924;-74
2023/01/19 05:23:06;;;;;;;;;;;17.90;64.80;;;;;;5019624;28;1287;-75
2023/01/19 05:25:31;;;;;;;;;;;17.90;64.60;;;;;;5019314;28;852;-73
2023/01/19 05:27:57;;;;;;;;;;;17.90;64.40;;;;;;5019574;28;1558;-73
2023/01/19 05:30:22;;;;;;;;;;;18.00;64.30;;;;;;5020491;28;927;-74
2023/01/19 05:32:48;;;;;;;;;;;18.00;64.10;;;;;;5038215;28;1930;-74
2023/01/19 05:35:15;;;;;;;;;;;18.10;64.10;;;;;;5021275;28;1336;-73
2023/01/19 05:37:41;;;;;;;;;;;18.10;64.00;;;;;;5017376;28;1251;-72
2023/01/19 05:40:06;;;;;;;;;;;18.10;63.80;;;;;;5020549;28;816;-74
2023/01/19 05:42:32;;;;;;;;;;;18.20;63.70;;;;;;5019452;28;817;-74
2023/01/19 05:44:58;;;;;;;;;;;18.20;63.60;;;;;;5023145;28;848;-73
2023/01/19 05:47:23;;;;;;;;;;;18.20;63.60;;;;;;5019628;28;1331;-73
2023/01/19 05:49:49;;;;;;;;;;;18.20;63.50;;;;;;5027857;28;1057;-73
2023/01/19 05:52:15;;;;;;;;;;;18.20;63.40;;;;;;5018903;28;935;-73
2023/01/19 05:54:40;;;;;;;;;;;18.30;63.40;;;;;;5020248;28;1959;-74
2023/01/19 05:57:06;;;;;;;;;;;18.30;63.30;;;;;;5017840;28;1684;-73
2023/01/19 05:59:31;;;;;;;;;;;18.30;63.20;;;;;;5015617;28;1190;-73
2023/01/19 06:01:58;;;;;;;;;;;18.30;63.20;;;;;;5017697;28;974;-75
2023/01/19 06:04:24;;;;;;;;;;;18.30;63.10;;;;;;5033121;28;2164;-75
2023/01/19 06:06:49;;;;;;;;;;;18.30;63.00;;;;;;5034784;28;1295;-75
2023/01/19 06:09:16;;;;;;;;;;;18.30;63.00;;;;;;5022463;28;1192;-73
2023/01/19 06:11:42;;;;;;;;;;;18.30;63.00;;;;;;5019949;28;1068;-73
2023/01/19 06:14:08;;;;;;;;;;;18.40;63.00;;;;;;5051867;28;1905;-73
2023/01/19 06:16:33;;;;;;;;;;;18.40;63.00;;;;;;5021732;28;1387;-73
2023/01/19 06:18:59;;;;;;;;;;;18.30;62.90;;;;;;5017731;28;800;-73
2023/01/19 06:21:24;;;;;;;;;;;18.30;62.90;;;;;;5026048;28;1296;-73
2023/01/19 06:23:50;;;;;;;;;;;18.40;62.90;;;;;;5054310;28;1056;-73
2023/01/19 06:26:15;;;;;;;;;;;18.40;62.90;;;;;;5016420;28;1808;-72
2023/01/19 06:28:41;;;;;;;;;;;18.40;62.90;;;;;;5018608;28;1442;-73
2023/01/19 06:31:06;;;;;;;;;;;18.40;62.90;;;;;;5021078;28;817;-73
2023/01/19 06:33:32;;;;;;;;;;;18.40;62.90;;;;;;5015818;28;1954;-74
2023/01/19 06:35:57;;;;;;;;;;;18.40;62.80;;;;;;5017296;28;1278;-74
2023/01/19 06:38:23;;;;;;;;;;;18.40;62.80;;;;;;5034214;28;1390;-73
2023/01/19 06:40:57;;;;;;;;;;;18.40;63.60;;;;;;5022601;28;871;-73
2023/01/19 06:43:22;;;;;;;;;;;18.40;62.80;;;;;;5046506;28;863;-73
2023/01/19 06:45:48;;;;;;;;;;;18.40;62.80;;;;;;5053343;28;801;-75
2023/01/19 06:48:14;;;;;;;;;;;18.40;62.80;;;;;;5022971;28;1348;-75
2023/01/19 06:50:40;;;;;;;;;;;18.40;62.80;;;;;;5004284;28;1434;-76
2023/01/19 06:53:05;;;;;;;;;;;18.40;62.80;;;;;;5023967;28;1894;-76
2023/01/19 06:55:31;;;;;;;;;;;18.40;62.80;;;;;;5049553;28;970;-76
2023/01/19 06:57:57;;;;;;;;;;;18.40;62.80;;;;;;5048182;28;1221;-75
2023/01/19 07:00:23;;;;;;;;;;;18.40;62.80;;;;;;5039847;28;1510;-74
2023/01/19 07:02:48;;;;;;;;;;;18.40;62.90;;;;;;5022523;28;852;-71
2023/01/19 07:05:14;;;;;;;;;;;18.30;62.80;;;;;;5023864;28;1413;-74
2023/01/19 07:07:41;;;;;;;;;;;18.30;62.80;;;;;;5020809;28;1373;-71
2023/01/19 07:10:07;;;;;;;;;;;18.40;62.90;;;;;;5020893;28;848;-72
2023/01/19 07:12:32;;;;;;;;;;;18.40;62.90;;;;;;5023005;28;976;-72
2023/01/19 07:14:58;;;;;;;;;;;18.30;62.90;;;;;;5020520;28;1894;-71
2023/01/19 07:17:23;;;;;;;;;;;18.30;62.90;;;;;;5036399;28;1554;-75
2023/01/19 07:19:49;;;;;;;;;;;18.30;63.00;;;;;;5024097;28;895;-70
2023/01/19 07:22:14;;;;;;;;;;;18.30;62.90;;;;;;5023895;28;865;-71
2023/01/19 07:24:40;;;;;;;;;;;18.30;63.00;;;;;;5024629;28;910;-71
2023/01/19 07:27:05;;;;;;;;;;;18.30;63.00;;;;;;5020440;28;1268;-73
2023/01/19 07:29:31;;;;;;;;;;;18.30;63.00;;;;;;5025930;28;946;-73
2023/01/19 07:31:56;;;;;;;;;;;18.30;63.00;;;;;;5019209;28;888;-73
2023/01/19 07:34:22;;;;;;;;;;;18.30;63.10;;;;;;5036521;28;1910;-73
2023/01/19 07:36:47;;;;;;;;;;;18.30;63.10;;;;;;5037352;28;1231;-72
2023/01/19 07:39:13;;;;;;;;;;;18.30;63.10;;;;;;5023693;28;836;-71
2023/01/19 07:41:38;;;;;;;;;;;18.30;63.20;;;;;;5022729;28;1515;-75
2023/01/19 07:44:04;;;;;;;;;;;18.30;63.20;;;;;;5053716;28;882;-74
2023/01/19 07:46:29;;;;;;;;;;;18.30;63.20;;;;;;5023727;28;1280;-74
2023/01/19 07:48:55;;;;;;;;;;;18.20;63.20;;;;;;5024975;28;721;-75
2023/01/19 07:51:20;;;;;;;;;;;18.30;63.30;;;;;;5022398;28;824;-75
2023/01/19 07:53:48;;;;;;;;;;;18.20;63.30;;;;;;5055043;28;1971;-75
2023/01/19 07:56:13;;;;;;;;;;;18.20;63.30;;;;;;5012863;28;1432;-73
2023/01/19 07:58:39;;;;;;;;;;;18.20;63.30;;;;;;5051318;28;911;-73
2023/01/19 08:01:08;;;;;;;;;;;18.20;63.40;;;;;;5024171;28;871;-74
2023/01/19 08:03:33;;;;;;;;;;;18.20;63.40;;;;;;5035915;28;1337;-72
2023/01/19 08:05:59;;;;;;;;;;;18.20;63.40;;;;;;5022902;28;972;-73
2023/01/19 08:08:24;;;;;;;;;;;18.20;63.40;;;;;;5020613;28;1293;-73
2023/01/19 08:10:50;;;;;;;;;;;18.20;63.50;;;;;;5020259;28;954;-73
2023/01/19 08:13:19;;;;;;;;;;;18.20;63.50;;;;;;5028920;28;1905;-72
2023/01/19 08:15:47;;;;;;;;;;;18.20;63.50;;;;;;5020277;28;883;-73
2023/01/19 08:18:14;;;;;;;;;;;18.20;63.50;;;;;;5018995;28;1390;-73
2023/01/19 08:20:40;;;;;;;;;;;18.20;63.50;;;;;;5013567;28;1383;-72
2023/01/19 08:23:05;;;;;;;;;;;18.20;63.50;;;;;;5022559;28;896;-72
2023/01/19 08:25:31;;;;;;;;;;;18.20;63.50;;;;;;5018637;28;819;-72
2023/01/19 08:27:57;;;;;;;;;;;18.20;63.50;;;;;;5019696;28;1268;-72
2023/01/19 08:30:25;;;;;;;;;;;18.20;63.50;;;;;;5026389;28;891;-72
2023/01/19 08:32:51;;;;;;;;;;;18.10;63.50;;;;;;5023154;28;1975;-72
2023/01/19 08:35:17;;;;;;;;;;;18.20;63.60;;;;;;5053404;28;839;-72
2023/01/19 08:37:42;;;;;;;;;;;18.20;63.50;;;;;;5024921;28;1343;-72
2023/01/19 08:40:08;;;;;;;;;;;18.20;63.60;;;;;;5024663;28;780;-73
2023/01/19 08:42:33;;;;;;;;;;;18.20;63.50;;;;;;5025047;28;856;-73
2023/01/19 08:44:59;;;;;;;;;;;18.20;64.30;;;;;;5053265;28;943;-73
2023/01/19 08:47:24;;;;;;;;;;;18.20;63.50;;;;;;5024010;28;1240;-72
2023/01/19 08:49:50;;;;;;;;;;;18.20;63.40;;;;;;5022801;28;907;-72
2023/01/19 08:52:15;;;;;;;;;;;18.20;63.40;;;;;;5026219;28;847;-73
2023/01/19 08:54:41;;;;;;;;;;;18.20;63.40;;;;;;5027666;28;1961;-73
2023/01/19 08:57:06;;;;;;;;;;;18.20;63.30;;;;;;5022195;28;1295;-73
2023/01/19 08:59:32;;;;;;;;;;;18.20;63.30;;;;;;5030123;28;1218;-72
2023/01/19 09:01:57;;;;;;;;;;;18.30;63.20;;;;;;5017926;28;844;-74
2023/01/19 09:04:23;;;;;;;;;;;18.20;63.20;;;;;;5021870;28;876;-71
2023/01/19 09:06:49;;;;;;;;;;;18.30;63.20;;;;;;5020284;28;1255;-70
2023/01/19 09:09:14;;;;;;;;;;;18.30;63.20;;;;;;5024766;28;1010;-71
2023/01/19 09:11:41;;;;;;;;;;;18.30;63.20;;;;;;5026979;28;851;-71
2023/01/19 09:14:07;;;;;;;;;;;18.30;63.10;;;;;;5022498;28;1973;-71
2023/01/19 09:16:33;;;;;;;;;;;18.20;63.10;;;;;;5019754;28;1366;-71
2023/01/19 09:18:58;;;;;;;;;;;18.30;63.20;;;;;;5024445;28;812;-72
2023/01/19 09:21:24;;;;;;;;;;;18.30;63.10;;;;;;5019309;28;883;-71
2023/01/19 09:23:49;;;;;;;;;;;18.30;63.10;;;;;;5014611;28;886;-71
2023/01/19 09:26:15;;;;;;;;;;;18.30;63.10;;;;;;5016321;28;1272;-70
2023/01/19 09:28:40;;;;;;;;;;;18.30;63.10;;;;;;5030370;28;1341;-72
2023/01/19 09:31:06;;;;;;;;;;;18.30;63.10;;;;;;5020127;28;887;-72
2023/01/19 09:33:32;;;;;;;;;;;18.30;63.00;;;;;;5020368;28;1898;-73
2023/01/19 09:35:57;;;;;;;;;;;18.30;63.00;;;;;;5033828;28;822;-72
2023/01/19 09:38:24;;;;;;;;;;;18.30;63.00;;;;;;5021293;28;1147;-72
2023/01/19 09:40:51;;;;;;;;;;;18.30;63.00;;;;;;5013666;28;1351;-73
2023/01/19 09:43:22;;;;;;;;;;;18.30;63.00;;;;;;5024342;28;832;-72
2023/01/19 09:45:50;;;;;;;;;;;18.30;62.90;;;;;;5019219;28;832;-72
2023/01/19 09:48:48;;;;;;;;;;;18.30;62.90;;;;;;5028769;28;1330;-73
2023/01/19 09:51:22;;;;;;;;;;;18.30;62.90;;;;;;5015186;28;1229;-72
2023/01/19 09:53:51;;;;;;;;;;;18.30;62.80;;;;;;5038261;28;1898;-72
2023/01/19 09:56:18;;;;;;;;;;;18.30;62.80;;;;;;5020036;28;1182;-72
2023/01/19 09:58:43;;;;;;;;;;;18.40;62.90;;;;;;5019370;28;909;-73
2023/01/19 10:01:18;;;;;;;;;;;18.40;62.80;;;;;;5047287;28;1959;-73
2023/01/19 10:03:43;;;;;;;;;;;18.40;62.80;;;;;;5018838;28;1095;-72
2023/01/19 10:06:12;;;;;;;;;;;18.40;62.70;;;;;;5020383;28;1373;-74
2023/01/19 10:09:13;;;;;;;;;;;18.40;63.50;;;;;;5020980;28;1461;-74
2023/01/19 10:11:40;;;;;;;;;;;18.40;62.70;;;;;;5017711;28;829;-74
2023/01/19 10:14:08;;;;;;;;;;;18.40;62.70;;;;;;5014332;28;1960;-73
2023/01/19 10:16:40;;;;;;;;;;;18.40;62.70;;;;;;5018816;28;1288;-73
2023/01/19 10:19:24;;;;;;;;;;;18.40;62.70;;;;;;5015981;28;978;-73
2023/01/19 10:21:50;;;;;;;;;;;18.40;62.70;;;;;;5018055;28;892;-72
2023/01/19 10:24:28;;;;;;;;;;;18.40;62.60;;;;;;5018786;28;912;-73
2023/01/19 10:26:53;;;;;;;;;;;18.40;62.60;;;;;;5020270;28;1391;-73
2023/01/19 10:29:22;;;;;;;;;;;18.40;62.60;;;;;;5019661;28;816;-72
2023/01/19 10:31:47;;;;;;;;;;;18.40;62.60;;;;;;5020164;28;824;-73
2023/01/19 10:34:19;;;;;;;;;;;18.40;62.60;;;;;;5019309;28;1964;-70
2023/01/19 10:36:45;;;;;;;;;;;18.40;62.60;;;;;;5025323;28;1260;-71
2023/01/19 10:39:10;;;;;;;;;;;18.40;62.60;;;;;;5047574;28;1028;-72
2023/01/19 10:41:49;;;;;;;;;;;18.40;62.60;;;;;;5051141;28;1081;-71
2023/01/19 10:44:21;;;;;;;;;;;18.40;62.60;;;;;;5019782;28;812;-72
2023/01/19 10:46:47;;;;;;;;;;;18.50;62.90;;;;;;5017920;28;1301;-73
2023/01/19 10:49:23;;;;;;;;;;;18.50;62.70;;;;;;5017445;28;966;-73
2023/01/19 10:51:49;;;;;;;;;;;18.50;62.60;;;;;;5019661;28;1613;-72
2023/01/19 10:54:14;;;;;;;;;;;18.40;62.50;;;;;;5050388;28;1934;-73
2023/01/19 10:56:40;;;;;;;;;;;18.50;62.60;;;;;;5019510;28;1228;-73
2023/01/19 10:59:06;;;;;;;;;;;18.50;62.60;;;;;;5020660;28;827;-76
2023/01/19 11:01:35;;;;;;;;;;;18.40;62.50;;;;;;5046077;28;2141;-72
2023/01/19 11:04:17;;;;;;;;;;;18.40;62.60;;;;;;5040335;28;899;-73
2023/01/19 11:06:43;;;;;;;;;;;18.40;62.60;;;;;;5023133;28;1289;-73
2023/01/19 11:09:16;;;;;;;;;;;18.40;62.50;;;;;;5023270;28;1148;-73
2023/01/19 11:11:51;;;;;;;;;;;18.40;62.60;;;;;;5019882;28;896;-73
2023/01/19 11:14:18;;;;;;;;;;;18.50;62.70;;;;;;5044525;28;1905;-74
2023/01/19 11:16:55;;;;;;;;;;;18.40;62.60;;;;;;5048667;28;1233;-74
2023/01/19 11:19:25;;;;;;;;;;;18.40;62.60;;;;;;5009473;28;1160;-73
2023/01/19 11:21:51;;;;;;;;;;;18.40;62.60;;;;;;5050176;28;871;-71
2023/01/19 11:24:16;;;;;;;;;;;18.40;62.60;;;;;;5018813;28;906;-72
2023/01/19 11:26:49;;;;;;;;;;;18.40;62.60;;;;;;5051609;28;1355;-73
2023/01/19 11:29:15;;;;;;;;;;;18.40;62.70;;;;;;5018947;28;920;-72
2023/01/19 11:31:41;;;;;;;;;;;18.40;62.70;;;;;;5014462;28;1002;-72
2023/01/19 11:34:21;;;;;;;;;;;18.40;62.70;;;;;;5020397;28;1926;-71
2023/01/19 11:36:54;;;;;;;;;;;18.40;62.70;;;;;;5017505;28;1338;-72
2023/01/19 11:39:20;;;;;;;;;;;18.40;62.80;;;;;;5018981;28;966;-72
2023/01/19 11:41:47;;;;;;;;;;;18.40;62.80;;;;;;5040602;28;4977;-74
2023/01/19 11:44:20;;;;;;;;;;;18.30;62.70;;;;;;5046481;28;4706;-74
2023/01/19 11:46:46;;;;;;;;;;;18.30;62.70;;;;;;5017078;28;4513;-74
2023/01/19 11:49:13;;;;;;;;;;;18.30;62.80;;;;;;5018063;28;1191;-75
2023/01/19 11:51:43;;;;;;;;;;;18.30;62.80;;;;;;5053105;28;927;-74
2023/01/19 11:54:18;;;;;;;;;;;18.30;62.80;;;;;;5038886;28;1902;-73
2023/01/19 11:56:43;;;;;;;;;;;18.30;62.90;;;;;;5029267;28;1229;-72
2023/01/19 11:59:10;;;;;;;;;;;18.30;62.90;;;;;;5023903;28;818;-72
2023/01/19 12:01:36;;;;;;;;;;;18.30;63.00;;;;;;5022114;28;966;-73
2023/01/19 12:04:10;;;;;;;;;;;18.30;63.00;;;;;;5023817;28;1363;-73
2023/01/19 12:06:46;;;;;;;;;;;18.30;63.00;;;;;;5035242;28;1444;-73
2023/01/19 12:09:14;;;;;;;;;;;18.30;63.10;;;;;;5022191;28;861;-72
2023/01/19 12:11:40;;;;;;;;;;;18.20;63.10;;;;;;5040047;28;1348;-72
2023/01/19 12:14:09;;;;;;;;;;;18.20;63.10;;;;;;5050644;28;1969;-72
2023/01/19 12:16:34;;;;;;;;;;;18.20;63.20;;;;;;5042487;28;1423;-72
2023/01/19 12:19:09;;;;;;;;;;;18.20;63.20;;;;;;5034605;28;1503;-72
2023/01/19 12:21:35;;;;;;;;;;;18.20;63.30;;;;;;5052975;28;915;-72
2023/01/19 12:24:00;;;;;;;;;;;18.20;63.30;;;;;;5021350;28;998;-72
2023/01/19 12:26:32;;;;;;;;;;;18.20;63.30;;;;;;5017971;28;1288;-71
2023/01/19 12:29:10;;;;;;;;;;;18.20;63.40;;;;;;5035388;28;1207;-71
2023/01/19 12:31:37;;;;;;;;;;;18.20;63.40;;;;;;5051834;28;819;-72
2023/01/19 12:34:34;;;;;;;;;;;18.20;63.40;;;;;;5016642;28;1975;-72
2023/01/19 12:37:02;;;;;;;;;;;18.20;63.50;;;;;;5050748;28;1255;-71
2023/01/19 12:39:27;;;;;;;;;;;18.10;63.40;;;;;;5028582;28;2111;-72
2023/01/19 12:42:22;;;;;;;;;;;18.10;63.40;;;;;;5058401;28;849;-72
2023/01/19 12:44:48;;;;;;;;;;;18.10;63.40;;;;;;5017079;28;1469;-73
2023/01/19 12:47:13;;;;;;;;;;;18.10;63.50;;;;;;5017592;28;1256;-71
2023/01/19 12:49:39;;;;;;;;;;;18.10;63.50;;;;;;5021446;28;808;-72
2023/01/19 12:52:22;;;;;;;;;;;18.10;63.60;;;;;;5020208;28;868;-72
2023/01/19 12:54:54;;;;;;;;;;;18.10;63.60;;;;;;5021050;28;1969;-72
2023/01/19 12:57:32;;;;;;;;;;;18.10;63.60;;;;;;5019803;28;1279;-72
2023/01/19 13:00:21;;;;;;;;;;;18.10;63.70;;;;;;5037320;28;1188;-72
2023/01/19 13:02:47;;;;;;;;;;;18.10;63.60;;;;;;5015334;28;1137;-72
2023/01/19 13:05:17;;;;;;;;;;;18.10;63.60;;;;;;5022960;28;1367;-71
2023/01/19 13:08:01;;;;;;;;;;;18.10;63.60;;;;;;5050345;28;1485;-71
2023/01/19 13:10:45;;;;;;;;;;;18.10;63.60;;;;;;5021065;28;1511;-71
2023/01/19 13:13:17;;;;;;;;;;;18.10;63.60;;;;;;5022603;28;1906;-71
2023/01/19 13:15:43;;;;;;;;;;;18.10;63.50;;;;;;5041805;28;1561;-71
2023/01/19 13:18:09;;;;;;;;;;;18.10;63.50;;;;;;5021443;28;1249;-72
2023/01/19 13:20:42;;;;;;;;;;;18.10;63.40;;;;;;5037712;28;1134;-70
2023/01/19 13:23:15;;;;;;;;;;;18.10;63.40;;;;;;5021594;28;911;-72
2023/01/19 13:25:40;;;;;;;;;;;18.10;63.40;;;;;;5018758;28;804;-73
2023/01/19 13:28:07;;;;;;;;;;;18.10;63.40;;;;;;5022300;28;1265;-71
2023/01/19 13:30:32;;;;;;;;;;;18.20;63.50;;;;;;5057093;28;906;-71
2023/01/19 13:33:02;;;;;;;;;;;18.20;63.40;;;;;;5033529;28;1910;-72
2023/01/19 13:35:27;;;;;;;;;;;18.20;63.40;;;;;;5038887;28;1604;-72
2023/01/19 13:37:53;;;;;;;;;;;18.20;63.40;;;;;;5019798;28;1283;-72
2023/01/19 13:40:29;;;;;;;;;;;18.20;63.40;;;;;;5055887;28;1059;-72
2023/01/19 13:42:54;;;;;;;;;;;18.20;63.30;;;;;;5022514;28;890;-72
2023/01/19 13:45:29;;;;;;;;;;;18.20;63.30;;;;;;5019982;28;1014;-72
2023/01/19 13:47:55;;;;;;;;;;;18.20;63.30;;;;;;5017836;28;1255;-72
2023/01/19 13:50:22;;;;;;;;;;;18.20;63.30;;;;;;5051438;28;926;-72
2023/01/19 13:52:50;;;;;;;;;;;18.20;63.30;;;;;;5050727;28;871;-71
2023/01/19 13:55:15;;;;;;;;;;;18.20;63.30;;;;;;5035063;28;1971;-72
2023/01/19 13:57:44;;;;;;;;;;;18.20;63.20;;;;;;5054527;28;1208;-73
2023/01/19 14:00:16;;;;;;;;;;;18.20;63.20;;;;;;5021707;28;923;-70
2023/01/19 14:02:44;;;;;;;;;;;18.20;63.20;;;;;;5018551;28;848;-71
2023/01/19 14:05:13;;;;;;;;;;;18.20;63.20;;;;;;5023237;28;1297;-71
2023/01/19 14:07:38;;;;;;;;;;;18.20;63.20;;;;;;5027310;28;1390;-71
2023/01/19 14:10:04;;;;;;;;;;;18.20;63.10;;;;;;5019458;28;912;-70
2023/01/19 14:12:31;;;;;;;;;;;18.20;63.10;;;;;;5052032;28;891;-72
2023/01/19 14:14:56;;;;;;;;;;;18.20;63.10;;;;;;5026499;28;1910;-71
2023/01/19 14:17:21;;;;;;;;;;;18.20;63.10;;;;;;5031992;28;1718;-72
2023/01/19 14:19:50;;;;;;;;;;;18.20;63.10;;;;;;5019834;28;879;-72
2023/01/19 14:22:16;;;;;;;;;;;18.20;63.10;;;;;;5017363;28;780;-72
2023/01/19 14:24:41;;;;;;;;;;;18.20;63.10;;;;;;5019991;28;1260;-72
2023/01/19 14:27:09;;;;;;;;;;;18.20;63.20;;;;;;5017959;28;1253;-71
2023/01/19 14:29:34;;;;;;;;;;;18.20;63.20;;;;;;5048767;28;815;-73
2023/01/19 14:32:00;;;;;;;;;;;18.20;63.20;;;;;;5048105;28;908;-71
2023/01/19 14:34:37;;;;;;;;;;;18.20;63.20;;;;;;5016544;28;1906;-72
2023/01/19 14:37:03;;;;;;;;;;;18.20;63.20;;;;;;5022435;28;1397;-71
2023/01/19 14:39:30;;;;;;;;;;;18.20;63.30;;;;;;5021695;28;1330;-71
2023/01/19 14:41:56;;;;;;;;;;;18.20;63.30;;;;;;5035219;28;1956;-73
2023/01/19 14:44:40;;;;;;;;;;;18.10;63.30;;;;;;5020855;28;1596;-73
2023/01/19 14:47:05;;;;;;;;;;;18.10;63.30;;;;;;5022527;28;1454;-73
2023/01/19 14:49:38;;;;;;;;;;;18.10;63.30;;;;;;5020972;28;1362;-73